NCAR-RAP Real-Time Weather Data

Output produced by METARs form (20 February 2019  17:13 UTC)
found at http://weather.rap.ucar.edu/surface/
 
RJOM 201200Z 32009KT 9999 FEW030 BKN045 10/03 Q1022
RJOM 201100Z 32011KT 9999 FEW030 10/03 Q1022
RJOM 201000Z 30012KT 9999 FEW030 10/04 Q1022
RJOM 200900Z 30013KT 9999 FEW030 11/04 Q1021
RJOM 200800Z 27012KT 9999 FEW025 BKN040 12/05 Q1020
RJOM 200700Z 25013KT 9999 FEW025 SCT040 12/06 Q1020
RJOM 200600Z 24012KT 9999 FEW025 13/07 Q1019
RJOM 200500Z 24013KT 9999 FEW025 SCT040 13/07 Q1019
RJOM 200400Z 24015KT 9999 FEW025 SCT050 13/08 Q1020
RJOM 200300Z 25016KT 9999 FEW025 SCT040 BKN050 12/07 Q1020
RJOM 200200Z 26015KT 9999 FEW025 SCT040 14/08 Q1020
RJOM 200100Z 25013KT 9999 FEW025 BKN050 13/09 Q1019
RJOM 200000Z 26019KT 9999 FEW025 SCT050 13/09 Q1019
RJOM 192300Z 23013KT 190V290 9999 FEW025 SCT040 BKN050 12/08 Q1019
RJOM 192200Z 22011KT 9999 FEW020 SCT030 BKN035 12/09 Q1018
RJOM 192110Z 24007KT 9999 FEW020 BKN030 BKN050 12/10 Q1018 RMK 1CU020 5CU030 7SC050 A3006
RJOM 191200Z 16007KT 9999 FEW020 SCT030 BKN050 11/11 Q1015
RJOM 191100Z 32004KT 270V360 9999 FEW010 SCT030 BKN050 11/11 Q1015
RJOM 191000Z VRB01KT 9999 FEW005 SCT035 11/10 Q1013
RJOM 190900Z VRB02KT 9999 FEW005 SCT050 BKN/// 11/10 Q1013
RJOM 190800Z 34005KT 9999 FEW005 SCT025 12/11 Q1012
RJOM 190700Z 02007KT 7000 FEW003 SCT040 BKN100 11/10 Q1012
RJOM 190600Z 36014KT 6000 -RA FEW002 SCT040 BKN060 11/10 Q1012
RJOM 190500Z 02005KT 6000 -RA FEW003 SCT050 BKN080 11/11 Q1011
RJOM 190432Z 03008KT 5000 -RA BR FEW003 SCT045 BKN070 11/10 Q1012 RMK 2ST003 4SC045 6AC070 A2991
RJOM 190414Z 02013KT 4500 RA BR FEW003 BKN040 BKN060 10/10 Q1013 RMK 2ST003 5SC040 6SC060 A2992
RJOM 190400Z 01013KT 4000 -RA BR FEW003 BKN040 BKN060 11/10 Q1013
RJOM 190345Z 36014KT 3500 RA BR FEW003 BKN040 BKN060 10/10 Q1013 RMK 1ST003 5SC040 7SC060 A2994
RJOM 190300Z 36007KT 4500 -RA BR FEW003 SCT040 BKN060 10/09 Q1014
RJOM 190215Z 36014KT 4500 -RA BR FEW003 SCT040 BKN060 10/09 Q1015 RMK 1ST003 4SC040 6SC060 A3000
RJOM 190200Z 36008KT 5000 RA BR FEW003 SCT040 BKN050 11/10 Q1015
RJOM 190125Z 09006KT 050V120 6000 -RA FEW015 SCT040 BKN090 09/09 Q1015 RMK 1CU015 4SC040 7AC090 A3000 P/FR
RJOM 190100Z 01015KT 7000 -RA FEW015 BKN040 BKN070 09/08 Q1016
RJOM 190000Z 01011KT 6000 FEW010 SCT040 BKN060 09/08 Q1018
RJOM 182311Z 01014KT 4500 -RA BR FEW003 SCT040 BKN070 09/08 Q1019 RMK 1ST003 4SC040 6AC070 A3009
RJOM 182300Z 01004KT 330V040 4200 -RA BR FEW003 SCT040 BKN070 08/08 Q1019
RJOM 182200Z 04006KT 4000 -RA BR FEW005 SCT040 BKN070 08/08 Q1019
RJOM 182137Z 03005KT 4000 -RA BR FEW015 SCT040 BKN090 08/07 Q1020 RMK 1ST015 4SC040 6AC090 A3012
RJOM 182110Z 04005KT 6000 -RA FEW015 BKN040 BKN060 08/07 Q1020 RMK 1ST015 5SC040 6AC060 A3014
RJOM 181200Z 13003KT 9999 FEW035 SCT045 BKN080 10/02 Q1024
RJOM 181100Z 15004KT 9999 FEW035 SCT045 BKN160 10/03 Q1025
RJOM 181000Z 31003KT 270V340 9999 FEW035 SCT045 BKN100 11/01 Q1025
RJOM 180900Z 32003KT 280V350 9999 FEW035 SCT050 BKN100 10/01 Q1024
RJOM 180800Z 36006KT 9999 FEW035 BKN110 11/M01 Q1024
RJOM 180700Z 35007KT 9999 FEW035 BKN120 11/02 Q1023
RJOM 180600Z 36009KT 9999 FEW035 10/02 Q1024